createdAt,value
2022-08-30T00:00:39.166Z,9.3
2022-08-30T00:01:39.356Z,9.5
2022-08-30T00:02:39.303Z,9.5
2022-08-30T00:03:41.187Z,9.1
2022-08-30T00:04:39.250Z,10.1
2022-08-30T00:05:39.629Z,9.9
2022-08-30T00:06:39.072Z,9.1
2022-08-30T00:07:39.660Z,9.2
2022-08-30T00:08:40.322Z,9.0
2022-08-30T00:09:39.281Z,9.0
2022-08-30T00:10:39.740Z,9.6
2022-08-30T00:11:38.950Z,9.1
2022-08-30T00:12:39.747Z,9.2
2022-08-30T00:13:41.298Z,9.4
2022-08-30T00:14:39.303Z,9.4
2022-08-30T00:15:40.722Z,10.2
2022-08-30T00:16:39.448Z,10.1
2022-08-30T00:17:39.602Z,9.3
2022-08-30T00:18:39.112Z,9.2
2022-08-30T00:19:39.629Z,9.7
2022-08-30T00:20:39.590Z,9.2
2022-08-30T00:21:39.370Z,8.6
2022-08-30T00:22:39.674Z,8.9
2022-08-30T00:23:39.671Z,9.8
2022-08-30T00:24:39.262Z,9.0
2022-08-30T00:25:39.596Z,8.7
2022-08-30T00:26:39.294Z,9.2
2022-08-30T00:27:39.102Z,9.4
2022-08-30T00:28:39.034Z,9.5
2022-08-30T00:29:39.668Z,8.3
2022-08-30T00:30:40.278Z,8.7
2022-08-30T00:31:39.297Z,8.9
2022-08-30T00:32:39.609Z,9.3
2022-08-30T00:33:39.036Z,9.1
2022-08-30T00:34:39.628Z,9.0
2022-08-30T00:35:39.534Z,8.9
2022-08-30T00:36:39.396Z,8.2
2022-08-30T00:37:39.328Z,8.6
2022-08-30T00:38:38.984Z,8.8
2022-08-30T00:39:39.771Z,9.3
2022-08-30T00:40:40.760Z,10.3
2022-08-30T00:41:39.339Z,9.1
2022-08-30T00:42:39.625Z,8.3
2022-08-30T00:43:39.473Z,8.5
2022-08-30T00:44:39.631Z,8.3
2022-08-30T00:45:39.219Z,9.1
2022-08-30T00:46:39.068Z,9.3
2022-08-30T00:47:39.641Z,8.6
2022-08-30T00:48:41.295Z,9.4
2022-08-30T00:49:41.593Z,9.2
2022-08-30T00:50:43.300Z,10.4
2022-08-30T00:51:39.832Z,9.3
2022-08-30T00:52:41.046Z,9.5
2022-08-30T00:53:43.181Z,8.4
2022-08-30T00:54:40.800Z,9.3
2022-08-30T00:55:42.047Z,8.9
2022-08-30T00:56:38.953Z,8.7
2022-08-30T00:57:43.661Z,9.5
2022-08-30T00:58:41.350Z,9.8
2022-08-30T00:59:42.065Z,9.1
2022-08-30T01:00:39.630Z,9.1
2022-08-30T01:01:39.706Z,8.0
2022-08-30T01:02:39.257Z,8.4
2022-08-30T01:03:40.075Z,9.0
2022-08-30T01:04:41.394Z,8.4
2022-08-30T01:05:39.207Z,9.2
2022-08-30T01:06:38.945Z,8.8
2022-08-30T01:07:40.182Z,8.1
2022-08-30T01:08:39.403Z,9.4
2022-08-30T01:09:39.273Z,8.4
2022-08-30T01:10:39.158Z,8.9
2022-08-30T01:11:40.051Z,8.1
2022-08-30T01:12:40.418Z,9.9
2022-08-30T01:13:39.541Z,9.1
2022-08-30T01:14:39.810Z,8.7
2022-08-30T01:15:40.622Z,8.0
2022-08-30T01:16:40.472Z,8.7
2022-08-30T01:17:40.101Z,9.5
2022-08-30T01:18:39.539Z,8.5
2022-08-30T01:19:55.614Z,9.1
2022-08-30T01:20:44.484Z,8.6
2022-08-30T01:21:45.414Z,9.1
2022-08-30T01:22:53.108Z,7.9
2022-08-30T01:23:41.583Z,9.3
2022-08-30T01:24:39.843Z,8.5
2022-08-30T01:25:40.596Z,8.2
2022-08-30T01:26:39.370Z,8.1
2022-08-30T01:27:42.371Z,8.4
2022-08-30T01:28:39.947Z,8.0
2022-08-30T01:29:39.531Z,8.8
2022-08-30T01:30:39.513Z,9.0
2022-08-30T01:31:38.963Z,8.8
2022-08-30T01:32:41.486Z,7.5
2022-08-30T01:33:39.082Z,9.5
2022-08-30T01:34:39.743Z,8.1
2022-08-30T01:35:50.318Z,8.2
2022-08-30T01:36:44.669Z,8.5
2022-08-30T01:37:39.740Z,8.4
2022-08-30T01:38:44.403Z,7.9
2022-08-30T01:39:39.600Z,7.7
2022-08-30T01:40:39.428Z,8.4
2022-08-30T01:41:39.056Z,8.5
2022-08-30T01:42:39.634Z,8.2
2022-08-30T01:43:39.448Z,8.1
2022-08-30T01:44:39.303Z,8.7
2022-08-30T01:45:39.503Z,8.0
2022-08-30T01:46:41.933Z,8.6
2022-08-30T01:47:39.451Z,8.5
2022-08-30T01:48:40.167Z,8.3
2022-08-30T01:49:39.678Z,8.5
2022-08-30T01:50:40.177Z,8.5
2022-08-30T01:51:39.354Z,7.8
2022-08-30T01:52:39.655Z,7.4
2022-08-30T01:53:39.830Z,8.1
2022-08-30T01:54:40.521Z,8.2
2022-08-30T01:55:39.729Z,8.1
2022-08-30T01:56:39.391Z,7.9
2022-08-30T01:57:39.245Z,8.1
2022-08-30T01:58:39.121Z,8.8
2022-08-30T01:59:40.892Z,9.1
2022-08-30T02:00:39.190Z,8.9
2022-08-30T02:01:39.461Z,8.1
2022-08-30T02:02:39.186Z,7.8
2022-08-30T02:03:39.852Z,9.2
2022-08-30T02:04:40.150Z,8.1
2022-08-30T02:05:39.534Z,8.4
2022-08-30T02:06:39.531Z,8.8
2022-08-30T02:07:39.190Z,8.2
2022-08-30T02:08:39.370Z,7.9
2022-08-30T02:09:40.099Z,8.8
2022-08-30T02:10:39.472Z,8.2
2022-08-30T02:11:39.325Z,7.8
2022-08-30T02:12:39.157Z,8.1
2022-08-30T02:13:39.950Z,7.5
2022-08-30T02:14:39.091Z,8.2
2022-08-30T02:15:41.596Z,8.4
2022-08-30T02:16:39.004Z,8.1
2022-08-30T02:17:39.943Z,7.6
2022-08-30T02:18:39.464Z,8.9
2022-08-30T02:19:39.334Z,8.7
2022-08-30T02:20:39.148Z,8.4
2022-08-30T02:21:39.464Z,7.9
2022-08-30T02:22:39.210Z,8.0
2022-08-30T02:23:39.308Z,9.0
2022-08-30T02:24:38.954Z,8.0
2022-08-30T02:25:39.551Z,8.2
2022-08-30T02:26:39.398Z,7.5
2022-08-30T02:27:39.207Z,7.7
2022-08-30T02:28:42.786Z,8.3
2022-08-30T02:29:39.733Z,7.1
2022-08-30T02:30:39.677Z,7.3
2022-08-30T02:31:39.515Z,8.6
2022-08-30T02:32:39.684Z,7.9
2022-08-30T02:33:40.483Z,7.9
2022-08-30T02:34:39.430Z,7.9
2022-08-30T02:35:39.849Z,8.2
2022-08-30T02:36:39.465Z,8.2
2022-08-30T02:37:39.264Z,8.6
2022-08-30T02:38:39.076Z,7.9
2022-08-30T02:39:38.870Z,7.9
2022-08-30T02:40:39.634Z,7.9
2022-08-30T02:41:39.940Z,8.0
2022-08-30T02:42:39.235Z,7.6
2022-08-30T02:43:39.109Z,8.1
2022-08-30T02:44:39.800Z,7.9
2022-08-30T02:45:39.154Z,9.0
2022-08-30T02:46:39.039Z,8.4
2022-08-30T02:47:41.637Z,8.7
2022-08-30T02:48:39.066Z,7.3
2022-08-30T02:49:39.737Z,7.5
2022-08-30T02:50:42.937Z,7.7
2022-08-30T02:51:39.592Z,8.7
2022-08-30T02:52:39.237Z,8.3
2022-08-30T02:53:40.759Z,7.4
2022-08-30T02:54:39.324Z,7.6
2022-08-30T02:55:39.157Z,8.0
2022-08-30T02:56:38.972Z,7.6
2022-08-30T02:57:39.699Z,7.7
2022-08-30T02:58:40.030Z,8.3
2022-08-30T02:59:39.313Z,7.9
2022-08-30T03:00:39.457Z,7.8
2022-08-30T03:01:38.953Z,8.0
2022-08-30T03:02:40.060Z,7.4
2022-08-30T03:03:40.303Z,8.2
2022-08-30T03:04:39.745Z,7.5
2022-08-30T03:05:39.878Z,8.4
2022-08-30T03:06:39.461Z,7.6
2022-08-30T03:07:39.668Z,7.7
2022-08-30T03:08:39.083Z,7.5
2022-08-30T03:09:38.940Z,7.5
2022-08-30T03:10:39.560Z,7.7
2022-08-30T03:11:39.347Z,7.9
2022-08-30T03:12:39.231Z,6.7
2022-08-30T03:13:39.108Z,7.8
2022-08-30T03:14:38.907Z,7.9
2022-08-30T03:15:40.113Z,7.7
2022-08-30T03:16:39.724Z,7.2
2022-08-30T03:17:39.795Z,8.0
2022-08-30T03:18:39.531Z,8.2
2022-08-30T03:19:39.343Z,7.7
2022-08-30T03:20:40.331Z,8.0
2022-08-30T03:21:39.401Z,7.2
2022-08-30T03:22:39.644Z,7.4
2022-08-30T03:23:39.766Z,7.2
2022-08-30T03:24:39.445Z,8.0
2022-08-30T03:25:39.130Z,7.2
2022-08-30T03:26:43.066Z,7.3
2022-08-30T03:27:39.177Z,6.9
2022-08-30T03:28:40.274Z,7.3
2022-08-30T03:29:39.225Z,7.5
2022-08-30T03:30:39.081Z,7.8
2022-08-30T03:31:52.526Z,7.5
2022-08-30T03:32:39.897Z,7.8
2022-08-30T03:33:39.383Z,7.9
2022-08-30T03:34:39.222Z,7.9
2022-08-30T03:35:39.072Z,7.4
2022-08-30T03:36:39.737Z,6.5
2022-08-30T03:37:39.902Z,8.1
2022-08-30T03:38:39.491Z,7.6
2022-08-30T03:39:39.319Z,6.6
2022-08-30T03:40:39.190Z,7.0
2022-08-30T03:41:39.325Z,7.2
2022-08-30T03:42:39.623Z,7.6
2022-08-30T03:43:38.944Z,6.2
2022-08-30T03:44:39.723Z,7.5
2022-08-30T03:45:39.686Z,7.0
2022-08-30T03:46:39.415Z,6.9
2022-08-30T03:47:39.117Z,6.9
2022-08-30T03:48:39.141Z,8.0
2022-08-30T03:49:39.672Z,8.2
2022-08-30T03:50:39.455Z,7.2
2022-08-30T03:51:39.351Z,7.1
2022-08-30T03:52:39.170Z,8.3
2022-08-30T03:53:38.917Z,7.1
2022-08-30T03:54:39.578Z,8.1
2022-08-30T03:55:39.396Z,6.6
2022-08-30T03:56:39.895Z,7.1
2022-08-30T03:57:39.233Z,7.1
2022-08-30T03:58:38.889Z,7.8
2022-08-30T03:59:39.622Z,6.8
2022-08-30T04:00:39.580Z,7.3
2022-08-30T04:01:39.254Z,6.7
2022-08-30T04:02:39.744Z,7.4
2022-08-30T04:03:38.940Z,7.0
2022-08-30T04:04:39.585Z,8.0
2022-08-30T04:05:39.082Z,7.5
2022-08-30T04:06:39.432Z,7.1
2022-08-30T04:07:39.110Z,7.4
2022-08-30T04:08:38.918Z,6.7
2022-08-30T04:09:39.563Z,7.3
2022-08-30T04:10:39.369Z,6.7
2022-08-30T04:11:39.174Z,6.9
2022-08-30T04:12:39.049Z,6.5
2022-08-30T04:13:38.885Z,7.9
2022-08-30T04:14:39.605Z,8.7
2022-08-30T04:15:39.417Z,7.2
2022-08-30T04:16:39.445Z,7.0
2022-08-30T04:17:39.153Z,7.2
2022-08-30T04:18:38.911Z,7.5
2022-08-30T04:19:39.535Z,6.5
2022-08-30T04:20:39.409Z,7.7
2022-08-30T04:21:42.791Z,7.4
2022-08-30T04:22:39.054Z,7.4
2022-08-30T04:23:38.951Z,6.9
2022-08-30T04:24:39.635Z,6.3
2022-08-30T04:25:40.549Z,7.2
2022-08-30T04:26:39.233Z,6.8
2022-08-30T04:27:39.046Z,7.3
2022-08-30T04:28:38.919Z,7.5
2022-08-30T04:29:40.216Z,6.6
2022-08-30T04:30:43.644Z,6.7
2022-08-30T04:31:39.397Z,6.8
2022-08-30T04:32:39.039Z,6.9
2022-08-30T04:33:39.716Z,6.7
2022-08-30T04:34:39.618Z,7.3
2022-08-30T04:35:43.063Z,7.0
2022-08-30T04:36:39.261Z,6.8
2022-08-30T04:37:39.101Z,6.7
2022-08-30T04:38:39.542Z,7.7
2022-08-30T04:39:39.653Z,6.5
2022-08-30T04:40:45.887Z,6.8
2022-08-30T04:41:39.196Z,7.9
2022-08-30T04:42:39.567Z,7.2
2022-08-30T04:43:38.927Z,7.7
2022-08-30T04:44:39.098Z,7.3
2022-08-30T04:45:39.636Z,7.1
2022-08-30T04:46:44.609Z,6.9
2022-08-30T04:47:40.320Z,6.6
2022-08-30T04:48:39.241Z,7.2
2022-08-30T04:49:39.051Z,6.8
2022-08-30T04:50:41.921Z,6.6
2022-08-30T04:51:39.834Z,7.1
2022-08-30T04:52:39.480Z,6.9
2022-08-30T04:53:39.663Z,6.8
2022-08-30T04:54:39.054Z,7.0
2022-08-30T04:55:39.294Z,6.6
2022-08-30T04:56:39.543Z,7.0
2022-08-30T04:57:40.216Z,7.2
2022-08-30T04:58:39.607Z,6.2
2022-08-30T04:59:39.481Z,7.1
2022-08-30T05:00:42.224Z,6.9
2022-08-30T05:01:44.633Z,6.8
2022-08-30T05:02:40.041Z,7.0
2022-08-30T05:03:39.616Z,7.2
2022-08-30T05:04:39.408Z,7.5
2022-08-30T05:05:39.219Z,6.3
2022-08-30T05:06:39.236Z,7.2
2022-08-30T05:07:38.900Z,6.8
2022-08-30T05:08:39.685Z,6.4
2022-08-30T05:09:39.483Z,6.7
2022-08-30T05:10:40.877Z,6.8
2022-08-30T05:11:39.599Z,6.2
2022-08-30T05:12:39.712Z,7.3
2022-08-30T05:13:39.133Z,6.1
2022-08-30T05:14:38.962Z,5.9
2022-08-30T05:15:39.722Z,6.6
2022-08-30T05:16:39.892Z,6.6
2022-08-30T05:17:39.686Z,7.1
2022-08-30T05:18:39.112Z,7.1
2022-08-30T05:19:38.982Z,6.2
2022-08-30T05:20:39.868Z,6.4
2022-08-30T05:21:39.527Z,7.1
2022-08-30T05:22:40.426Z,7.1
2022-08-30T05:23:39.726Z,7.1
2022-08-30T05:24:38.939Z,6.6
2022-08-30T05:25:39.878Z,7.0
2022-08-30T05:26:39.097Z,6.8
2022-08-30T05:27:38.900Z,6.7
2022-08-30T05:28:39.545Z,6.2
2022-08-30T05:29:39.379Z,6.6
2022-08-30T05:30:39.195Z,6.7
2022-08-30T05:31:39.159Z,6.2
2022-08-30T05:32:40.262Z,6.1
2022-08-30T05:33:39.629Z,7.0
2022-08-30T05:34:39.461Z,5.7
2022-08-30T05:35:39.269Z,5.6
2022-08-30T05:36:39.092Z,5.9
2022-08-30T05:37:39.198Z,5.2
2022-08-30T05:38:39.846Z,7.2
2022-08-30T05:39:51.506Z,6.2
2022-08-30T05:40:39.980Z,6.9
2022-08-30T05:41:39.080Z,7.0
2022-08-30T05:42:39.765Z,6.6
2022-08-30T05:43:39.614Z,6.5
2022-08-30T05:44:39.426Z,6.9
2022-08-30T05:45:39.302Z,6.9
2022-08-30T05:46:39.073Z,6.5
2022-08-30T05:47:38.989Z,6.3
2022-08-30T05:48:39.597Z,6.1
2022-08-30T05:49:39.402Z,6.0
2022-08-30T05:50:40.043Z,6.0
2022-08-30T05:51:42.999Z,7.2
2022-08-30T05:52:39.645Z,6.4
2022-08-30T05:53:39.971Z,6.1
2022-08-30T05:54:39.444Z,5.7
2022-08-30T05:55:40.067Z,6.6
2022-08-30T05:56:39.587Z,6.6
2022-08-30T05:57:40.008Z,6.3
2022-08-30T05:58:39.548Z,7.0
2022-08-30T05:59:38.992Z,6.6
2022-08-30T06:00:39.665Z,6.2
2022-08-30T06:01:40.734Z,6.8
2022-08-30T06:02:39.994Z,6.3
2022-08-30T06:03:39.146Z,6.3
2022-08-30T06:04:39.134Z,6.3
2022-08-30T06:05:39.769Z,6.6
2022-08-30T06:06:40.282Z,6.6
2022-08-30T06:07:39.387Z,5.7
2022-08-30T06:08:39.216Z,5.5
2022-08-30T06:09:38.969Z,6.0
2022-08-30T06:10:39.954Z,5.9
2022-08-30T06:11:39.570Z,6.6
2022-08-30T06:12:39.438Z,6.1
2022-08-30T06:13:39.599Z,6.3
2022-08-30T06:14:38.982Z,5.8
2022-08-30T06:15:39.718Z,5.8
2022-08-30T06:16:40.051Z,6.4
2022-08-30T06:17:39.380Z,6.1
2022-08-30T06:18:39.365Z,5.9
2022-08-30T06:19:39.033Z,6.5
2022-08-30T06:20:40.146Z,6.1
2022-08-30T06:21:39.948Z,5.6
2022-08-30T06:22:39.347Z,6.0
2022-08-30T06:23:39.202Z,6.1
2022-08-30T06:24:56.378Z,5.8
2022-08-30T06:25:41.937Z,6.5
2022-08-30T06:26:40.835Z,7.1
2022-08-30T06:27:39.382Z,6.5
2022-08-30T06:28:39.310Z,6.1
2022-08-30T06:29:39.011Z,6.8
2022-08-30T06:30:40.050Z,6.0
2022-08-30T06:31:39.213Z,6.2
2022-08-30T06:32:39.037Z,6.4
2022-08-30T06:33:39.711Z,5.1
2022-08-30T06:34:39.428Z,5.8
2022-08-30T06:35:56.639Z,5.7
2022-08-30T06:36:39.579Z,5.5
2022-08-30T06:37:39.326Z,7.0
2022-08-30T06:38:40.061Z,6.8
2022-08-30T06:39:39.035Z,6.4
2022-08-30T06:40:39.769Z,7.2
2022-08-30T06:41:40.407Z,7.0
2022-08-30T06:42:39.402Z,7.0
2022-08-30T06:43:39.694Z,7.4
2022-08-30T06:44:39.600Z,6.9
2022-08-30T06:45:39.414Z,7.1
2022-08-30T06:46:39.307Z,7.0
2022-08-30T06:47:39.310Z,7.3
2022-08-30T06:48:39.365Z,7.8
2022-08-30T06:49:39.460Z,7.2
2022-08-30T06:50:39.810Z,6.7
2022-08-30T06:51:39.987Z,7.2
2022-08-30T06:52:40.251Z,7.5
2022-08-30T06:53:39.769Z,6.9
2022-08-30T06:54:39.252Z,7.5
2022-08-30T06:55:40.071Z,6.3
2022-08-30T06:56:40.329Z,7.6
2022-08-30T06:57:39.476Z,7.2
2022-08-30T06:58:39.242Z,7.3
2022-08-30T06:59:39.327Z,6.2
2022-08-30T07:00:38.929Z,7.7
2022-08-30T07:01:39.602Z,8.2
2022-08-30T07:02:39.774Z,8.4
2022-08-30T07:03:39.231Z,9.6
2022-08-30T07:04:39.068Z,7.3
2022-08-30T07:05:38.918Z,8.9
2022-08-30T07:06:39.573Z,8.8
2022-08-30T07:07:39.427Z,8.3
2022-08-30T07:08:39.557Z,8.6
2022-08-30T07:09:39.691Z,9.0
2022-08-30T07:10:40.172Z,10.8
2022-08-30T07:11:39.126Z,9.2
2022-08-30T07:12:39.562Z,9.0
2022-08-30T07:13:39.687Z,9.8
2022-08-30T07:14:39.600Z,10.2
2022-08-30T07:15:40.974Z,9.2
2022-08-30T07:16:39.141Z,9.7
2022-08-30T07:17:38.985Z,9.8
2022-08-30T07:18:39.410Z,10.1
2022-08-30T07:19:39.450Z,9.6
2022-08-30T07:20:40.588Z,10.4
2022-08-30T07:21:41.190Z,9.8
2022-08-30T07:22:38.932Z,10.0
2022-08-30T07:23:40.321Z,9.3
2022-08-30T07:24:39.455Z,8.6
2022-08-30T07:25:39.615Z,9.5
2022-08-30T07:26:41.095Z,9.3
2022-08-30T07:27:39.075Z,10.2
2022-08-30T07:28:40.704Z,9.0
2022-08-30T07:29:39.576Z,9.0
2022-08-30T07:30:40.159Z,9.0
2022-08-30T07:31:39.542Z,8.7
2022-08-30T07:32:39.412Z,8.7
2022-08-30T07:33:39.247Z,9.2
2022-08-30T07:34:39.043Z,8.6
2022-08-30T07:35:38.929Z,8.9
2022-08-30T07:36:39.669Z,8.9
2022-08-30T07:37:39.518Z,8.6
2022-08-30T07:38:39.280Z,7.8
2022-08-30T07:39:41.679Z,8.6
2022-08-30T07:40:39.575Z,9.0
2022-08-30T07:41:39.223Z,7.5
2022-08-30T07:42:39.057Z,8.3
2022-08-30T07:43:39.723Z,8.6
2022-08-30T07:44:39.504Z,8.4
2022-08-30T07:45:39.460Z,9.1
2022-08-30T07:46:39.734Z,9.5
2022-08-30T07:47:40.131Z,9.4
2022-08-30T07:48:39.287Z,9.2
2022-08-30T07:49:39.127Z,9.0
2022-08-30T07:50:42.731Z,8.9
2022-08-30T07:51:39.886Z,9.8
2022-08-30T07:52:39.570Z,9.6
2022-08-30T07:53:39.386Z,8.4
2022-08-30T07:54:39.290Z,8.5
2022-08-30T07:55:39.195Z,9.8
2022-08-30T07:56:39.708Z,9.2
2022-08-30T07:57:39.547Z,8.7
2022-08-30T07:58:39.502Z,10.8
2022-08-30T07:59:39.620Z,9.7
2022-08-30T08:00:39.504Z,9.3
2022-08-30T08:01:39.336Z,9.5
2022-08-30T08:02:39.243Z,9.3
2022-08-30T08:03:40.493Z,9.3
2022-08-30T08:04:39.262Z,8.8
2022-08-30T08:05:42.842Z,8.3
2022-08-30T08:06:39.970Z,9.1
2022-08-30T08:07:39.584Z,9.2
2022-08-30T08:08:40.487Z,9.7
2022-08-30T08:09:39.326Z,9.0
2022-08-30T08:10:39.972Z,8.6
2022-08-30T08:11:39.162Z,9.1
2022-08-30T08:12:39.907Z,9.1
2022-08-30T08:13:52.630Z,8.4
2022-08-30T08:14:39.686Z,8.1
2022-08-30T08:15:39.570Z,8.2
2022-08-30T08:16:39.320Z,8.1
2022-08-30T08:17:39.120Z,7.0
2022-08-30T08:18:39.060Z,7.6
2022-08-30T08:19:39.790Z,9.0
2022-08-30T08:20:39.573Z,7.4
2022-08-30T08:21:39.659Z,8.5
2022-08-30T08:22:40.216Z,8.2
2022-08-30T08:23:39.104Z,8.6
2022-08-30T08:24:38.873Z,8.0
2022-08-30T08:25:39.889Z,7.9
2022-08-30T08:26:40.934Z,8.4
2022-08-30T08:27:39.765Z,8.3
2022-08-30T08:28:39.786Z,7.8
2022-08-30T08:29:39.304Z,8.3
2022-08-30T08:30:39.105Z,6.8
2022-08-30T08:31:39.274Z,7.0
2022-08-30T08:32:39.665Z,8.0
2022-08-30T08:33:39.687Z,7.3
2022-08-30T08:34:39.314Z,7.1
2022-08-30T08:35:39.237Z,7.1
2022-08-30T08:36:39.354Z,8.0
2022-08-30T08:37:39.912Z,7.5
2022-08-30T08:38:39.666Z,7.0
2022-08-30T08:39:39.345Z,7.0
2022-08-30T08:40:44.105Z,7.1
2022-08-30T08:41:52.643Z,7.7
2022-08-30T08:42:46.667Z,7.8
2022-08-30T08:43:39.287Z,7.3
2022-08-30T08:44:49.680Z,6.5
2022-08-30T08:45:47.147Z,6.7
2022-08-30T08:46:47.322Z,6.4
2022-08-30T08:47:40.609Z,6.9
2022-08-30T08:48:58.990Z,7.3
2022-08-30T08:49:39.931Z,7.5
2022-08-30T08:50:39.632Z,6.8
2022-08-30T08:51:39.834Z,7.1
2022-08-30T08:52:53.162Z,7.3
2022-08-30T08:53:46.906Z,7.1
2022-08-30T08:54:43.832Z,7.0
2022-08-30T08:55:42.073Z,6.2
2022-08-30T08:56:39.630Z,6.8
2022-08-30T08:57:39.859Z,6.7
2022-08-30T08:58:46.657Z,7.2
2022-08-30T08:59:38.963Z,6.8
2022-08-30T09:00:39.779Z,7.4
2022-08-30T09:01:40.115Z,7.7
2022-08-30T09:02:43.426Z,7.6
2022-08-30T09:03:40.143Z,8.9
2022-08-30T09:04:39.242Z,8.2
2022-08-30T09:05:39.625Z,8.5
2022-08-30T09:06:45.076Z,7.8
2022-08-30T09:07:41.270Z,8.1
2022-08-30T09:08:39.065Z,8.1
2022-08-30T09:09:39.513Z,8.3
2022-08-30T09:10:50.565Z,8.5
2022-08-30T09:11:40.484Z,7.8
2022-08-30T09:12:39.316Z,10.3
2022-08-30T09:13:39.109Z,9.1
2022-08-30T09:14:45.934Z,9.2
2022-08-30T09:15:39.258Z,8.4
2022-08-30T09:16:49.603Z,8.5
2022-08-30T09:17:52.757Z,8.8
2022-08-30T09:18:48.182Z,9.2
2022-08-30T09:19:41.412Z,9.0
2022-08-30T09:20:43.645Z,8.7
2022-08-30T09:21:39.411Z,7.9
2022-08-30T09:22:40.666Z,8.4
2022-08-30T09:23:49.767Z,8.5
2022-08-30T09:24:41.463Z,8.7
2022-08-30T09:25:44.081Z,8.6
2022-08-30T09:26:39.022Z,9.3
2022-08-30T09:27:41.289Z,9.8
2022-08-30T09:28:49.865Z,10.4
2022-08-30T09:29:44.231Z,12.8
2022-08-30T09:30:44.555Z,12.8
2022-08-30T09:31:50.184Z,15.3
2022-08-30T09:32:47.157Z,16.1
2022-08-30T09:33:39.141Z,15.7
2022-08-30T09:34:42.403Z,13.7
2022-08-30T09:35:44.163Z,14.5
2022-08-30T09:36:43.636Z,15.1
2022-08-30T09:37:44.209Z,15.0
2022-08-30T09:38:39.942Z,13.8
2022-08-30T09:39:41.883Z,14.5
2022-08-30T09:40:41.307Z,13.5
2022-08-30T09:41:40.910Z,14.0
2022-08-30T09:42:39.361Z,11.9
2022-08-30T09:43:39.195Z,12.6
2022-08-30T09:44:38.998Z,12.3
2022-08-30T09:45:41.344Z,12.1
2022-08-30T09:46:43.023Z,12.0
2022-08-30T09:47:41.335Z,12.1
2022-08-30T09:48:42.951Z,11.7
2022-08-30T09:49:40.716Z,11.9
2022-08-30T09:50:39.257Z,11.9
2022-08-30T09:51:43.986Z,11.4
2022-08-30T09:52:44.223Z,12.4
2022-08-30T09:54:17.212Z,11.2
2022-08-30T09:54:43.936Z,11.1
2022-08-30T09:55:46.674Z,11.3
2022-08-30T09:56:44.028Z,12.3
2022-08-30T09:57:56.161Z,11.2
2022-08-30T09:58:44.463Z,10.3
2022-08-30T09:59:53.163Z,11.2
2022-08-30T10:00:46.667Z,10.2
2022-08-30T10:01:42.729Z,11.2
2022-08-30T10:02:47.689Z,10.6
2022-08-30T10:03:46.652Z,9.5
2022-08-30T10:04:43.818Z,10.8
2022-08-30T10:05:44.602Z,10.7
2022-08-30T10:06:43.326Z,11.4
2022-08-30T10:07:45.874Z,10.0
2022-08-30T10:09:02.191Z,9.7
2022-08-30T10:09:46.646Z,9.5
2022-08-30T10:10:57.139Z,9.7
2022-08-30T10:11:50.185Z,9.5
2022-08-30T10:12:55.657Z,9.1
2022-08-30T10:13:47.174Z,9.2
2022-08-30T10:14:44.216Z,9.5
2022-08-30T10:15:44.206Z,8.4
2022-08-30T10:16:59.183Z,10.1
2022-08-30T10:17:57.629Z,9.7
2022-08-30T10:18:57.114Z,9.9
2022-08-30T10:19:49.685Z,9.4
2022-08-30T10:20:50.169Z,9.2
2022-08-30T10:21:44.440Z,8.8
2022-08-30T10:22:44.230Z,8.6
2022-08-30T10:23:43.591Z,8.7
2022-08-30T10:24:43.921Z,7.6
2022-08-30T10:25:44.587Z,8.4
2022-08-30T10:26:48.688Z,9.1
2022-08-30T10:27:42.196Z,8.8
2022-08-30T10:28:46.882Z,8.7
2022-08-30T10:29:46.660Z,8.0
2022-08-30T10:30:43.056Z,8.6
2022-08-30T10:31:47.209Z,8.6
2022-08-30T10:32:49.702Z,8.7
2022-08-30T10:33:45.016Z,9.1
2022-08-30T10:34:50.169Z,7.6
2022-08-30T10:35:43.264Z,8.2
2022-08-30T10:36:43.424Z,9.1
2022-08-30T10:37:41.606Z,8.5
2022-08-30T10:38:41.264Z,9.1
2022-08-30T10:39:43.906Z,7.9
2022-08-30T10:40:43.502Z,8.9
2022-08-30T10:41:45.166Z,7.9
2022-08-30T10:42:40.265Z,8.0
2022-08-30T10:43:44.051Z,8.0
2022-08-30T10:44:42.514Z,8.4
2022-08-30T10:45:40.860Z,8.6
2022-08-30T10:46:56.194Z,7.9
2022-08-30T10:47:43.458Z,8.3
2022-08-30T10:48:44.464Z,8.4
2022-08-30T10:49:43.088Z,8.5
2022-08-30T10:50:41.581Z,8.9
2022-08-30T10:51:43.383Z,7.7
2022-08-30T10:53:02.240Z,8.3
2022-08-30T10:53:49.814Z,8.6
2022-08-30T10:54:49.484Z,8.2
2022-08-30T10:55:47.876Z,8.9
2022-08-30T10:56:41.993Z,8.2
2022-08-30T10:57:43.506Z,8.7
2022-08-30T10:58:39.649Z,9.5
2022-08-30T10:59:42.292Z,9.8
2022-08-30T11:01:02.260Z,8.8
2022-08-30T11:01:50.241Z,9.0
2022-08-30T11:02:43.843Z,8.4
2022-08-30T11:04:01.711Z,8.5
2022-08-30T11:04:57.135Z,8.8
2022-08-30T11:05:44.580Z,8.2
2022-08-30T11:06:47.204Z,8.2
2022-08-30T11:07:47.193Z,8.7
2022-08-30T11:08:46.809Z,8.8
2022-08-30T11:09:46.709Z,9.7
2022-08-30T11:10:49.622Z,9.0
2022-08-30T11:11:47.191Z,8.0
2022-08-30T11:12:52.676Z,7.8
2022-08-30T11:13:40.343Z,8.8
2022-08-30T11:14:43.280Z,8.0
2022-08-30T11:15:52.895Z,8.2
2022-08-30T11:16:40.672Z,8.0
2022-08-30T11:17:49.718Z,8.3
2022-08-30T11:18:50.993Z,8.3
2022-08-30T11:19:39.841Z,8.5
2022-08-30T11:20:43.859Z,8.1
2022-08-30T11:21:40.893Z,7.7
2022-08-30T11:22:39.474Z,8.1
2022-08-30T11:23:39.069Z,7.9
2022-08-30T11:25:01.747Z,7.4
2022-08-30T11:25:56.807Z,7.7
2022-08-30T11:26:50.215Z,8.1
2022-08-30T11:27:46.711Z,7.6
2022-08-30T11:28:44.039Z,7.3
2022-08-30T11:29:42.731Z,6.1
2022-08-30T11:30:45.629Z,7.5
2022-08-30T11:31:39.983Z,7.2
2022-08-30T11:32:55.718Z,7.5
2022-08-30T11:33:40.588Z,6.8
2022-08-30T11:34:49.769Z,7.5
2022-08-30T11:35:48.676Z,6.6
2022-08-30T11:36:47.210Z,8.0
2022-08-30T11:37:42.805Z,7.1
2022-08-30T11:38:44.037Z,7.2
2022-08-30T11:39:46.704Z,7.1
2022-08-30T11:40:53.219Z,7.1
2022-08-30T11:41:43.262Z,6.6
2022-08-30T11:42:43.563Z,7.7
2022-08-30T11:43:47.200Z,8.2
2022-08-30T11:44:39.360Z,7.5
2022-08-30T11:45:42.430Z,6.9
2022-08-30T11:46:39.850Z,7.4
2022-08-30T11:47:43.764Z,7.0
2022-08-30T11:48:46.998Z,6.8
2022-08-30T11:49:44.335Z,7.5
2022-08-30T11:51:01.708Z,7.4
2022-08-30T11:51:44.141Z,8.1
2022-08-30T11:52:44.210Z,7.8
2022-08-30T11:53:46.716Z,7.0
2022-08-30T11:54:49.872Z,7.2
2022-08-30T11:55:50.303Z,7.2
2022-08-30T11:56:59.211Z,7.6
2022-08-30T11:57:46.735Z,6.6
2022-08-30T11:58:44.133Z,6.7
2022-08-30T11:59:46.748Z,6.8
2022-08-30T12:00:41.375Z,6.7
2022-08-30T12:01:50.590Z,6.8
2022-08-30T12:02:43.797Z,6.2
2022-08-30T12:03:39.478Z,6.4
2022-08-30T12:04:43.811Z,5.2
2022-08-30T12:05:44.647Z,7.5
2022-08-30T12:06:44.382Z,6.2
2022-08-30T12:07:55.935Z,6.1
2022-08-30T12:08:41.651Z,5.6
2022-08-30T12:09:46.754Z,6.1
2022-08-30T12:10:41.325Z,5.7
2022-08-30T12:11:54.251Z,5.7
2022-08-30T12:12:43.867Z,6.0
2022-08-30T12:13:47.238Z,6.8
2022-08-30T12:14:52.317Z,6.0
2022-08-30T12:15:49.765Z,5.9
2022-08-30T12:16:46.427Z,5.7
2022-08-30T12:17:46.727Z,5.0
2022-08-30T12:18:56.123Z,5.1
2022-08-30T12:19:44.648Z,5.8
2022-08-30T12:20:41.577Z,5.9
2022-08-30T12:21:44.650Z,5.6
2022-08-30T12:22:38.927Z,5.4
2022-08-30T12:23:44.951Z,6.1
2022-08-30T12:24:42.136Z,5.4
2022-08-30T12:25:39.294Z,5.4
2022-08-30T12:26:41.273Z,5.6
2022-08-30T12:27:39.339Z,5.3
2022-08-30T12:28:42.104Z,5.2
2022-08-30T12:29:43.877Z,4.7
2022-08-30T12:30:40.240Z,5.7
2022-08-30T12:31:47.348Z,5.0
2022-08-30T12:32:43.326Z,5.3
2022-08-30T12:33:41.468Z,6.2
2022-08-30T12:34:46.720Z,4.8
2022-08-30T12:35:41.199Z,5.5
2022-08-30T12:36:44.472Z,4.4
2022-08-30T12:37:42.194Z,4.2
2022-08-30T12:38:39.237Z,5.1
2022-08-30T12:39:42.788Z,5.8
2022-08-30T12:40:44.571Z,5.4
2022-08-30T12:41:43.656Z,4.7
2022-08-30T12:42:44.219Z,5.2
2022-08-30T12:43:44.092Z,5.6
2022-08-30T12:44:39.262Z,5.0
2022-08-30T12:45:43.563Z,5.4
2022-08-30T12:46:40.210Z,4.6
2022-08-30T12:47:47.810Z,4.9
2022-08-30T12:48:39.699Z,5.3
2022-08-30T12:49:39.976Z,5.4
2022-08-30T12:50:45.169Z,4.9
2022-08-30T12:51:41.870Z,4.8
2022-08-30T12:52:40.904Z,4.1
2022-08-30T12:53:40.211Z,5.1
2022-08-30T12:54:39.093Z,4.6
2022-08-30T12:55:50.108Z,6.0
2022-08-30T12:56:53.248Z,4.8
2022-08-30T12:57:41.400Z,5.4
2022-08-30T12:58:44.239Z,5.1
2022-08-30T12:59:48.836Z,5.6
2022-08-30T13:00:40.712Z,5.3
2022-08-30T13:01:39.151Z,4.4
2022-08-30T13:02:50.018Z,5.0
2022-08-30T13:03:39.615Z,5.8
2022-08-30T13:04:39.537Z,5.1
2022-08-30T13:05:45.504Z,5.3
2022-08-30T13:06:46.758Z,5.5
2022-08-30T13:07:39.327Z,5.0
2022-08-30T13:08:46.718Z,5.1
2022-08-30T13:09:40.340Z,5.9
2022-08-30T13:10:54.232Z,5.1
2022-08-30T13:11:39.458Z,6.0
2022-08-30T13:12:39.325Z,5.7
2022-08-30T13:13:40.407Z,6.1
2022-08-30T13:14:42.391Z,5.8
2022-08-30T13:15:42.391Z,5.5
2022-08-30T13:16:44.589Z,6.6
2022-08-30T13:17:39.096Z,5.7
2022-08-30T13:18:39.104Z,5.2
2022-08-30T13:19:40.697Z,4.8
2022-08-30T13:20:39.649Z,5.0
2022-08-30T13:21:44.417Z,4.7
2022-08-30T13:22:40.995Z,4.8
2022-08-30T13:23:39.631Z,5.1
2022-08-30T13:24:39.451Z,5.2
2022-08-30T13:25:39.276Z,4.8
2022-08-30T13:26:39.938Z,4.8
2022-08-30T13:27:39.104Z,5.7
2022-08-30T13:28:56.069Z,5.7
2022-08-30T13:29:39.445Z,5.3
2022-08-30T13:30:39.193Z,5.4
2022-08-30T13:31:39.147Z,5.2
2022-08-30T13:32:39.106Z,6.2
2022-08-30T13:33:39.585Z,6.8
2022-08-30T13:34:39.678Z,7.4
2022-08-30T13:35:39.221Z,6.6
2022-08-30T13:36:44.823Z,6.3
2022-08-30T13:37:49.713Z,6.9
2022-08-30T13:38:40.107Z,5.5
2022-08-30T13:39:39.506Z,5.6
2022-08-30T13:40:39.429Z,5.6
2022-08-30T13:41:39.355Z,4.5
2022-08-30T13:42:39.072Z,5.7
2022-08-30T13:44:11.989Z,7.2
2022-08-30T13:44:39.403Z,7.7